Terminal Aerodrome Forecast
Issued by NWS Shreveport, LA

Home | Current Version | Previous Version | Text Only | Print | Product List | Glossary On
Versions: 1 2 3 4 5 6 7 8 9 10 11 12 13 14 15
000
FTUS44 KSHV 041140
TAFMLU
TAF
KMLU 041140Z 0412/0512 22008KT P6SM SKC
      TEMPO 0412/0416 BKN007
     FM041600 21009KT P6SM VCTS SCT030CB BKN100 OVC150
     FM050000 17004KT P6SM VCTS BKN050CB BKN100=

USA.gov is the U.S. government's official web portal to all federal, state and local government web resources and services.